createdAt,value
2017-07-08T00:00:10.566Z,19.3
2017-07-08T00:01:10.599Z,19.24
2017-07-08T00:02:10.662Z,19.25
2017-07-08T00:03:10.650Z,19.31
2017-07-08T00:04:10.701Z,19.3
2017-07-08T00:05:10.739Z,19.3
2017-07-08T00:06:10.769Z,19.32
2017-07-08T00:07:10.813Z,19.32
2017-07-08T00:08:10.857Z,19.35
2017-07-08T00:09:10.907Z,19.32
2017-07-08T00:10:10.922Z,19.34
2017-07-08T00:11:10.963Z,19.35
2017-07-08T00:12:10.972Z,19.3
2017-07-08T00:13:11.026Z,19.32
2017-07-08T00:14:11.057Z,19.31
2017-07-08T00:15:11.089Z,19.31
2017-07-08T00:16:11.132Z,19.28
2017-07-08T00:17:11.153Z,19.38
2017-07-08T00:18:11.205Z,19.35
2017-07-08T00:19:11.243Z,19.3
2017-07-08T00:20:11.275Z,19.32
2017-07-08T00:21:11.308Z,19.31
2017-07-08T00:22:11.355Z,19.35
2017-07-08T00:23:11.441Z,19.28
2017-07-08T00:24:11.416Z,19.28
2017-07-08T00:25:11.458Z,19.34
2017-07-08T00:26:11.495Z,19.32
2017-07-08T00:27:11.527Z,19.34
2017-07-08T00:28:11.539Z,19.32
2017-07-08T00:29:11.592Z,19.34
2017-07-08T00:30:11.631Z,19.32
2017-07-08T00:31:11.660Z,19.34
2017-07-08T00:32:11.696Z,19.31
2017-07-08T00:33:11.740Z,19.31
2017-07-08T00:34:11.761Z,19.32
2017-07-08T00:35:11.811Z,19.35
2017-07-08T00:36:11.846Z,19.34
2017-07-08T00:37:11.875Z,19.27
2017-07-08T00:38:11.923Z,19.16
2017-07-08T00:39:11.957Z,19.12
2017-07-08T00:40:11.991Z,19.06
2017-07-08T00:41:12.022Z,19.02
2017-07-08T00:42:12.058Z,18.99
2017-07-08T00:43:12.094Z,18.96
2017-07-08T00:44:12.109Z,18.81
2017-07-08T00:45:12.175Z,18.81
2017-07-08T00:46:12.207Z,18.76
2017-07-08T00:47:12.242Z,18.69
2017-07-08T00:48:12.278Z,18.74
2017-07-08T00:49:12.307Z,18.66
2017-07-08T00:50:12.350Z,18.63
2017-07-08T00:51:12.380Z,18.59
2017-07-08T00:52:12.413Z,18.54
2017-07-08T00:53:12.441Z,18.56
2017-07-08T00:54:12.477Z,18.57
2017-07-08T00:55:12.520Z,18.45
2017-07-08T00:56:12.553Z,18.57
2017-07-08T00:57:12.572Z,18.53
2017-07-08T00:58:12.627Z,18.44
2017-07-08T00:59:12.706Z,18.36
2017-07-08T01:00:12.673Z,18.35
2017-07-08T01:01:12.736Z,18.38
2017-07-08T01:02:12.753Z,18.35
2017-07-08T01:03:12.832Z,18.31
2017-07-08T01:04:12.844Z,18.27
2017-07-08T01:05:12.873Z,18.23
2017-07-08T01:06:12.904Z,18.2
2017-07-08T01:07:12.945Z,18.17
2017-07-08T01:08:12.977Z,18.19
2017-07-08T01:09:13.001Z,18.19
2017-07-08T01:10:13.057Z,18.16
2017-07-08T01:11:13.074Z,18.1
2017-07-08T01:12:13.119Z,18.16
2017-07-08T01:13:13.134Z,18.08
2017-07-08T01:14:13.191Z,17.99
2017-07-08T01:15:13.227Z,18.06
2017-07-08T01:16:13.252Z,18.08
2017-07-08T01:17:13.301Z,18.05
2017-07-08T01:18:13.333Z,18.01
2017-07-08T01:19:13.350Z,18.05
2017-07-08T01:20:13.370Z,18.02
2017-07-08T01:21:13.447Z,17.96
2017-07-08T01:22:13.450Z,17.95
2017-07-08T01:23:13.502Z,18.02
2017-07-08T01:24:13.551Z,17.94
2017-07-08T01:25:13.568Z,17.92
2017-07-08T01:26:13.615Z,17.94
2017-07-08T01:27:13.632Z,17.94
2017-07-08T01:28:13.678Z,17.95
2017-07-08T01:29:13.722Z,17.96
2017-07-08T01:30:13.754Z,17.95
2017-07-08T01:31:13.765Z,17.98
2017-07-08T01:32:13.829Z,18.01
2017-07-08T01:33:13.866Z,18.03
2017-07-08T01:34:13.872Z,18.11
2017-07-08T01:35:13.928Z,18.1
2017-07-08T01:36:13.963Z,18.14
2017-07-08T01:37:13.990Z,18.02
2017-07-08T01:38:14.031Z,18.08
2017-07-08T01:39:14.071Z,18.14
2017-07-08T01:40:14.115Z,18.14
2017-07-08T01:41:14.143Z,18.17
2017-07-08T01:42:14.185Z,18.16
2017-07-08T01:43:14.208Z,18.17
2017-07-08T01:44:14.235Z,18.2
2017-07-08T01:45:14.285Z,18.16
2017-07-08T01:46:14.311Z,18.13
2017-07-08T01:47:14.353Z,18.11
2017-07-08T01:48:14.383Z,18.1
2017-07-08T01:49:14.426Z,18.06
2017-07-08T01:50:14.456Z,17.98
2017-07-08T01:51:14.483Z,17.98
2017-07-08T01:52:14.526Z,17.94
2017-07-08T01:53:14.566Z,17.92
2017-07-08T01:54:14.580Z,17.84
2017-07-08T01:55:14.611Z,17.87
2017-07-08T01:56:14.671Z,17.88
2017-07-08T01:57:14.686Z,17.84
2017-07-08T01:58:14.762Z,17.81
2017-07-08T01:59:14.777Z,17.79
2017-07-08T02:00:14.858Z,17.84
2017-07-08T02:01:14.854Z,17.83
2017-07-08T02:02:14.895Z,17.79
2017-07-08T02:03:14.893Z,17.71
2017-07-08T02:04:14.943Z,17.73
2017-07-08T02:05:14.995Z,17.71
2017-07-08T02:06:15.011Z,17.69
2017-07-08T02:07:15.056Z,17.66
2017-07-08T02:08:15.084Z,17.86
2017-07-08T02:09:15.126Z,17.83
2017-07-08T02:10:15.155Z,17.81
2017-07-08T02:11:15.194Z,17.84
2017-07-08T02:12:15.230Z,17.79
2017-07-08T02:13:15.274Z,17.76
2017-07-08T02:14:15.284Z,17.71
2017-07-08T02:15:15.331Z,17.73
2017-07-08T02:16:15.372Z,17.74
2017-07-08T02:17:15.860Z,17.65
2017-07-08T02:18:15.645Z,17.58
2017-07-08T02:19:15.733Z,17.55
2017-07-08T02:20:16.127Z,17.69
2017-07-08T02:21:16.568Z,17.55
2017-07-08T02:22:15.571Z,17.62
2017-07-08T02:23:15.620Z,17.58
2017-07-08T02:24:16.491Z,17.58
2017-07-08T02:25:16.092Z,17.62
2017-07-08T02:26:15.754Z,17.6
2017-07-08T02:27:15.785Z,17.54
2017-07-08T02:28:16.620Z,17.47
2017-07-08T02:29:15.811Z,17.57
2017-07-08T02:30:15.847Z,17.58
2017-07-08T02:31:15.877Z,17.5
2017-07-08T02:32:15.910Z,17.52
2017-07-08T02:33:15.946Z,17.52
2017-07-08T02:34:15.988Z,17.42
2017-07-08T02:35:16.038Z,17.5
2017-07-08T02:36:16.066Z,17.49
2017-07-08T02:37:16.116Z,17.46
2017-07-08T02:38:16.154Z,17.46
2017-07-08T02:39:16.164Z,17.4
2017-07-08T02:40:16.209Z,17.43
2017-07-08T02:41:16.252Z,17.43
2017-07-08T02:42:16.287Z,17.43
2017-07-08T02:43:16.305Z,17.46
2017-07-08T02:44:16.356Z,17.46
2017-07-08T02:45:16.383Z,17.47
2017-07-08T02:46:16.437Z,17.52
2017-07-08T02:47:16.459Z,17.49
2017-07-08T02:48:16.468Z,17.47
2017-07-08T02:49:16.524Z,17.47
2017-07-08T02:50:16.545Z,17.36
2017-07-08T02:51:16.575Z,17.45
2017-07-08T02:52:16.625Z,17.52
2017-07-08T02:53:16.662Z,17.42
2017-07-08T02:54:16.688Z,17.54
2017-07-08T02:55:16.738Z,17.46
2017-07-08T02:56:16.757Z,17.46
2017-07-08T02:57:16.786Z,17.42
2017-07-08T02:58:16.835Z,17.43
2017-07-08T02:59:16.855Z,17.49
2017-07-08T03:00:16.895Z,17.49
2017-07-08T03:01:16.938Z,17.5
2017-07-08T03:02:16.977Z,17.55
2017-07-08T03:03:17.000Z,17.57
2017-07-08T03:04:17.041Z,17.6
2017-07-08T03:05:17.084Z,17.62
2017-07-08T03:06:17.120Z,17.57
2017-07-08T03:07:17.135Z,17.69
2017-07-08T03:08:17.187Z,17.76
2017-07-08T03:09:17.218Z,17.79
2017-07-08T03:10:17.454Z,17.83
2017-07-08T03:11:17.295Z,17.87
2017-07-08T03:12:17.314Z,17.84
2017-07-08T03:13:17.361Z,17.96
2017-07-08T03:14:17.411Z,17.96
2017-07-08T03:15:17.413Z,18.01
2017-07-08T03:16:17.459Z,18.03
2017-07-08T03:17:17.505Z,18.13
2017-07-08T03:18:17.532Z,18.21
2017-07-08T03:19:17.576Z,18.27
2017-07-08T03:20:17.592Z,18.29
2017-07-08T03:21:17.642Z,18.38
2017-07-08T03:22:17.669Z,18.39
2017-07-08T03:23:17.682Z,18.42
2017-07-08T03:24:17.748Z,18.44
2017-07-08T03:25:17.787Z,18.45
2017-07-08T03:26:17.794Z,18.49
2017-07-08T03:27:17.914Z,18.56
2017-07-08T03:28:17.883Z,18.57
2017-07-08T03:29:17.923Z,18.51
2017-07-08T03:30:18.002Z,18.61
2017-07-08T03:31:17.997Z,18.54
2017-07-08T03:32:18.006Z,18.65
2017-07-08T03:33:18.040Z,18.68
2017-07-08T03:34:18.095Z,18.72
2017-07-08T03:35:18.118Z,18.76
2017-07-08T03:36:18.176Z,18.78
2017-07-08T03:37:18.207Z,18.76
2017-07-08T03:38:18.229Z,18.86
2017-07-08T03:39:18.272Z,18.84
2017-07-08T03:40:18.310Z,18.93
2017-07-08T03:41:18.339Z,18.94
2017-07-08T03:42:18.374Z,19.02
2017-07-08T03:43:18.415Z,18.99
2017-07-08T03:44:18.473Z,19.05
2017-07-08T03:45:18.481Z,19.07
2017-07-08T03:46:18.518Z,19.15
2017-07-08T03:47:18.556Z,19.13
2017-07-08T03:48:18.572Z,19.24
2017-07-08T03:49:18.636Z,19.25
2017-07-08T03:50:18.642Z,19.27
2017-07-08T03:51:18.668Z,19.31
2017-07-08T03:52:18.712Z,19.31
2017-07-08T03:53:18.761Z,19.4
2017-07-08T03:54:18.795Z,19.37
2017-07-08T03:55:18.835Z,19.37
2017-07-08T03:56:18.866Z,19.35
2017-07-08T03:57:18.910Z,19.35
2017-07-08T03:58:18.923Z,19.43
2017-07-08T03:59:18.972Z,19.49
2017-07-08T04:00:22.671Z,19.49
2017-07-08T04:01:22.719Z,19.53
2017-07-08T04:02:22.757Z,19.56
2017-07-08T04:03:22.762Z,19.61
2017-07-08T04:04:22.814Z,19.57
2017-07-08T04:05:22.865Z,19.63
2017-07-08T04:06:22.886Z,19.7
2017-07-08T04:07:22.914Z,19.71
2017-07-08T04:08:22.956Z,19.8
2017-07-08T04:09:22.979Z,19.79
2017-07-08T04:10:23.024Z,19.74
2017-07-08T04:11:23.063Z,19.79
2017-07-08T04:12:23.096Z,19.89
2017-07-08T04:13:23.140Z,19.9
2017-07-08T04:14:23.292Z,19.97
2017-07-08T04:15:23.213Z,20
2017-07-08T04:16:23.262Z,20.04
2017-07-08T04:17:23.282Z,20.02
2017-07-08T04:18:23.317Z,20.15
2017-07-08T04:19:23.339Z,20.08
2017-07-08T04:20:23.385Z,20.1
2017-07-08T04:21:23.432Z,20.05
2017-07-08T04:22:23.502Z,20.08
2017-07-08T04:23:23.494Z,20.16
2017-07-08T04:24:23.513Z,20.25
2017-07-08T04:25:23.567Z,20.18
2017-07-08T04:26:23.615Z,20.27
2017-07-08T04:27:23.672Z,20.34
2017-07-08T04:28:23.734Z,20.4
2017-07-08T04:29:23.709Z,20.3
2017-07-08T04:30:23.743Z,20.44
2017-07-08T04:31:24.005Z,20.6
2017-07-08T04:32:23.805Z,20.72
2017-07-08T04:33:23.936Z,20.85
2017-07-08T04:34:23.928Z,20.88
2017-07-08T04:35:23.932Z,21.06
2017-07-08T04:36:24.011Z,21.18
2017-07-08T04:37:24.001Z,21.27
2017-07-08T04:38:24.095Z,21.3
2017-07-08T04:39:24.061Z,21.4
2017-07-08T04:40:24.106Z,21.49
2017-07-08T04:41:24.090Z,21.58
2017-07-08T04:42:24.231Z,21.62
2017-07-08T04:43:24.224Z,21.58
2017-07-08T04:44:24.283Z,21.61
2017-07-08T04:45:24.287Z,21.56
2017-07-08T04:46:24.321Z,21.59
2017-07-08T04:47:24.357Z,21.56
2017-07-08T04:48:24.504Z,21.48
2017-07-08T04:49:24.439Z,21.41
2017-07-08T04:50:24.573Z,21.37
2017-07-08T04:51:24.514Z,21.3
2017-07-08T04:52:24.542Z,21.3
2017-07-08T04:53:24.584Z,21.22
2017-07-08T04:54:24.691Z,21.23
2017-07-08T04:55:24.734Z,21.11
2017-07-08T04:56:24.700Z,21.11
2017-07-08T04:57:24.713Z,21.09
2017-07-08T04:58:24.861Z,21.08
2017-07-08T04:59:24.795Z,21.04
2017-07-08T05:00:24.844Z,21.09
2017-07-08T05:01:24.893Z,21.06
2017-07-08T05:02:24.932Z,21.15
2017-07-08T05:03:24.955Z,21.27
2017-07-08T05:04:25.023Z,21.19
2017-07-08T05:05:25.004Z,21.22
2017-07-08T05:06:25.033Z,21.25
2017-07-08T05:07:25.089Z,21.36
2017-07-08T05:08:25.101Z,21.41
2017-07-08T05:09:25.164Z,21.66
2017-07-08T05:10:25.266Z,21.77
2017-07-08T05:11:25.239Z,21.93
2017-07-08T05:12:25.353Z,22.12
2017-07-08T05:13:25.457Z,22.23
2017-07-08T05:14:25.340Z,22.31
2017-07-08T05:15:25.361Z,22.26
2017-07-08T05:16:25.513Z,22.41
2017-07-08T05:17:25.537Z,22.41
2017-07-08T05:18:25.499Z,22.44
2017-07-08T05:19:25.722Z,22.46
2017-07-08T05:20:25.663Z,22.52
2017-07-08T05:21:25.634Z,22.49
2017-07-08T05:22:25.655Z,22.6
2017-07-08T05:23:25.672Z,22.7
2017-07-08T05:24:25.718Z,22.85
2017-07-08T05:25:25.738Z,22.92
2017-07-08T05:26:25.789Z,23.12
2017-07-08T05:27:25.818Z,23.16
2017-07-08T05:28:25.859Z,23.29
2017-07-08T05:29:25.909Z,23.44
2017-07-08T05:30:25.938Z,23.37
2017-07-08T05:31:26.035Z,23.38
2017-07-08T05:32:26.087Z,23.41
2017-07-08T05:33:26.047Z,23.38
2017-07-08T05:34:26.081Z,23.32
2017-07-08T05:35:26.121Z,23.41
2017-07-08T05:36:26.162Z,23.4
2017-07-08T05:37:26.201Z,23.38
2017-07-08T05:38:26.236Z,23.25
2017-07-08T05:39:26.281Z,23.25
2017-07-08T05:40:26.320Z,23.19
2017-07-08T05:41:26.364Z,23.18
2017-07-08T05:42:26.383Z,23.18
2017-07-08T05:43:26.633Z,23.15
2017-07-08T05:44:26.443Z,23.16
2017-07-08T05:45:26.700Z,23.06
2017-07-08T05:46:26.744Z,22.94
2017-07-08T05:47:26.779Z,22.88
2017-07-08T05:48:26.601Z,22.85
2017-07-08T05:49:26.926Z,22.85
2017-07-08T05:50:26.689Z,22.7
2017-07-08T05:51:26.722Z,22.7
2017-07-08T05:52:26.752Z,22.64
2017-07-08T05:53:26.870Z,22.57
2017-07-08T05:54:26.822Z,22.52
2017-07-08T05:55:26.946Z,22.49
2017-07-08T05:56:26.914Z,22.45
2017-07-08T05:57:26.944Z,22.48
2017-07-08T05:58:27.014Z,22.45
2017-07-08T05:59:27.042Z,22.51
2017-07-08T06:00:27.151Z,22.39
2017-07-08T06:01:27.160Z,22.52
2017-07-08T06:02:27.183Z,22.52
2017-07-08T06:03:27.175Z,22.51
2017-07-08T06:04:27.223Z,22.51
2017-07-08T06:05:27.246Z,22.52
2017-07-08T06:06:27.336Z,22.48
2017-07-08T06:07:27.338Z,22.48
2017-07-08T06:08:27.353Z,22.46
2017-07-08T06:09:27.467Z,22.44
2017-07-08T06:10:27.404Z,22.42
2017-07-08T06:11:27.480Z,22.3
2017-07-08T06:12:27.531Z,22.3
2017-07-08T06:13:27.522Z,22.22
2017-07-08T06:14:27.624Z,22.24
2017-07-08T06:15:27.628Z,22.26
2017-07-08T06:16:27.629Z,22.22
2017-07-08T06:17:27.760Z,22.23
2017-07-08T06:18:27.728Z,22.24
2017-07-08T06:19:28.003Z,22.24
2017-07-08T06:20:27.806Z,22.3
2017-07-08T06:21:27.820Z,22.33
2017-07-08T06:22:28.021Z,22.3
2017-07-08T06:23:27.879Z,22.33
2017-07-08T06:24:28.153Z,22.24
2017-07-08T06:25:28.026Z,22.14
2017-07-08T06:26:28.029Z,22.14
2017-07-08T06:27:28.032Z,22.04
2017-07-08T06:28:28.104Z,22.02
2017-07-08T06:29:28.178Z,22
2017-07-08T06:30:28.183Z,22
2017-07-08T06:31:28.210Z,22.02
2017-07-08T06:32:28.257Z,22.08
2017-07-08T06:33:28.296Z,21.99
2017-07-08T06:34:28.323Z,22.04
2017-07-08T06:35:28.441Z,22.02
2017-07-08T06:36:28.504Z,22.04
2017-07-08T06:37:28.429Z,22.05
2017-07-08T06:38:28.466Z,22.02
2017-07-08T06:39:28.497Z,22.16
2017-07-08T06:40:28.575Z,22.11
2017-07-08T06:41:28.578Z,22.18
2017-07-08T06:42:28.680Z,22.2
2017-07-08T06:43:28.668Z,22.16
2017-07-08T06:44:28.786Z,22.2
2017-07-08T06:45:28.722Z,22.12
2017-07-08T06:46:28.763Z,22.18
2017-07-08T06:47:28.804Z,22.14
2017-07-08T06:48:28.838Z,22.18
2017-07-08T06:49:28.844Z,22.15
2017-07-08T06:50:28.905Z,22.16
2017-07-08T06:51:28.924Z,22.15
2017-07-08T06:52:29.075Z,22.2
2017-07-08T06:53:29.023Z,22.16
2017-07-08T06:54:29.042Z,22.2
2017-07-08T06:55:29.156Z,22.29
2017-07-08T06:56:29.127Z,22.3
2017-07-08T06:57:29.182Z,22.36
2017-07-08T06:58:29.245Z,22.33
2017-07-08T06:59:29.548Z,22.41
2017-07-08T07:00:29.258Z,22.39
2017-07-08T07:01:29.355Z,22.36
2017-07-08T07:02:29.342Z,22.34
2017-07-08T07:03:29.397Z,22.31
2017-07-08T07:04:29.431Z,22.38
2017-07-08T07:05:29.497Z,22.34
2017-07-08T07:06:29.503Z,22.24
2017-07-08T07:07:29.545Z,22.29
2017-07-08T07:08:29.550Z,22.18
2017-07-08T07:09:29.716Z,22.08
2017-07-08T07:10:29.672Z,22.07
2017-07-08T07:11:29.814Z,22.04
2017-07-08T07:12:29.852Z,21.99
2017-07-08T07:13:29.764Z,22.04
2017-07-08T07:14:29.804Z,22
2017-07-08T07:15:29.848Z,22.12
2017-07-08T07:16:29.865Z,22.15
2017-07-08T07:17:29.904Z,22.23
2017-07-08T07:18:29.967Z,22.31
2017-07-08T07:19:29.965Z,22.31
2017-07-08T07:20:30.197Z,22.33
2017-07-08T07:21:30.042Z,22.26
2017-07-08T07:22:30.085Z,22.27
2017-07-08T07:23:30.219Z,22.18
2017-07-08T07:24:30.348Z,22.08
2017-07-08T07:25:30.462Z,22.02
2017-07-08T07:26:30.238Z,21.9
2017-07-08T07:27:30.303Z,21.93
2017-07-08T07:28:30.304Z,21.8
2017-07-08T07:29:30.332Z,21.92
2017-07-08T07:30:30.373Z,21.8
2017-07-08T07:31:30.464Z,21.85
2017-07-08T07:32:30.462Z,21.86
2017-07-08T07:33:30.680Z,21.86
2017-07-08T07:34:30.690Z,21.96
2017-07-08T07:35:30.563Z,21.94
2017-07-08T07:36:30.617Z,22.02
2017-07-08T07:37:30.637Z,22.05
2017-07-08T07:38:30.663Z,22.26
2017-07-08T07:39:30.715Z,22.26
2017-07-08T07:40:30.735Z,22.33
2017-07-08T07:41:30.796Z,22.39
2017-07-08T07:42:30.899Z,22.46
2017-07-08T07:43:30.853Z,22.46
2017-07-08T07:44:30.893Z,22.49
2017-07-08T07:45:30.923Z,22.63
2017-07-08T07:46:30.968Z,22.59
2017-07-08T07:47:30.987Z,22.67
2017-07-08T07:48:31.052Z,22.64
2017-07-08T07:49:31.123Z,22.69
2017-07-08T07:50:31.119Z,22.89
2017-07-08T07:51:31.201Z,22.89
2017-07-08T07:52:31.196Z,22.86
2017-07-08T07:53:31.233Z,22.82
2017-07-08T07:54:31.238Z,22.79
2017-07-08T07:55:31.300Z,22.81
2017-07-08T07:56:31.457Z,22.96
2017-07-08T07:57:31.487Z,22.99
2017-07-08T07:58:31.463Z,22.99
2017-07-08T07:59:31.426Z,22.92
2017-07-08T08:00:31.507Z,22.91
2017-07-08T08:01:31.540Z,22.96
2017-07-08T08:02:31.565Z,22.92
2017-07-08T08:03:31.599Z,22.91
2017-07-08T08:04:31.648Z,22.79
2017-07-08T08:05:31.700Z,22.79
2017-07-08T08:06:31.686Z,22.78
2017-07-08T08:07:31.765Z,22.73
2017-07-08T08:08:31.847Z,22.76
2017-07-08T08:09:31.832Z,22.81
2017-07-08T08:10:31.863Z,22.92
2017-07-08T08:11:31.895Z,22.91
2017-07-08T08:12:31.933Z,22.86
2017-07-08T08:13:31.963Z,22.91
2017-07-08T08:14:32.010Z,22.78
2017-07-08T08:15:32.042Z,22.91
2017-07-08T08:16:32.085Z,22.96
2017-07-08T08:17:32.114Z,22.96
2017-07-08T08:18:32.238Z,22.97
2017-07-08T08:19:32.195Z,22.85
2017-07-08T08:20:32.262Z,22.92
2017-07-08T08:21:32.331Z,22.92
2017-07-08T08:22:32.299Z,22.91
2017-07-08T08:23:32.324Z,22.89
2017-07-08T08:24:32.401Z,23.01
2017-07-08T08:25:32.414Z,23.01
2017-07-08T08:26:32.447Z,23.06
2017-07-08T08:27:32.500Z,23.12
2017-07-08T08:28:32.535Z,23.29
2017-07-08T08:29:32.571Z,23.53
2017-07-08T08:30:32.604Z,23.57
2017-07-08T08:31:32.647Z,23.74
2017-07-08T08:32:32.706Z,23.81
2017-07-08T08:33:32.719Z,23.82
2017-07-08T08:34:32.943Z,23.87
2017-07-08T08:35:32.963Z,23.92
2017-07-08T08:36:33.473Z,23.82
2017-07-08T08:37:32.948Z,23.85
2017-07-08T08:38:33.105Z,23.85
2017-07-08T08:39:32.999Z,23.9
2017-07-08T08:40:32.982Z,23.96
2017-07-08T08:41:33.158Z,24.33
2017-07-08T08:42:33.088Z,24.46
2017-07-08T08:43:33.132Z,24.52
2017-07-08T08:44:33.366Z,24.67
2017-07-08T08:45:33.221Z,24.75
2017-07-08T08:46:33.304Z,24.82
2017-07-08T08:47:33.249Z,24.87
2017-07-08T08:48:33.361Z,24.92
2017-07-08T08:49:33.317Z,24.93
2017-07-08T08:50:33.452Z,24.93
2017-07-08T08:51:33.377Z,24.96
2017-07-08T08:52:33.476Z,25
2017-07-08T08:53:33.516Z,24.97
2017-07-08T08:54:33.527Z,25.02
2017-07-08T08:55:33.601Z,25.05
2017-07-08T08:56:33.686Z,25.24
2017-07-08T08:57:33.624Z,25.33
2017-07-08T08:58:33.768Z,25.52
2017-07-08T08:59:33.657Z,25.67
2017-07-08T09:00:33.789Z,25.91
2017-07-08T09:01:33.852Z,26.12
2017-07-08T09:02:33.817Z,26.2
2017-07-08T09:03:33.867Z,26.3
2017-07-08T09:04:33.964Z,26.15
2017-07-08T09:05:33.980Z,25.93
2017-07-08T09:06:33.972Z,25.66
2017-07-08T09:07:34.020Z,25.48
2017-07-08T09:08:34.077Z,25.33
2017-07-08T09:09:34.096Z,24.92
2017-07-08T09:10:34.127Z,24.69
2017-07-08T09:11:34.150Z,24.52
2017-07-08T09:12:34.224Z,24.4
2017-07-08T09:13:34.239Z,24.37
2017-07-08T09:14:34.349Z,24.29
2017-07-08T09:15:34.446Z,24.21
2017-07-08T09:16:34.356Z,24.22
2017-07-08T09:17:34.377Z,24.19
2017-07-08T09:18:34.636Z,24.21
2017-07-08T09:19:34.466Z,24.21
2017-07-08T09:20:34.851Z,24.29
2017-07-08T09:21:34.571Z,24.44
2017-07-08T09:22:34.586Z,24.59
2017-07-08T09:23:34.740Z,24.67
2017-07-08T09:24:34.719Z,24.89
2017-07-08T09:25:34.740Z,24.97
2017-07-08T09:26:34.766Z,25.08
2017-07-08T09:27:34.789Z,25.11
2017-07-08T09:28:34.852Z,25.05
2017-07-08T09:29:34.872Z,25.12
2017-07-08T09:30:34.922Z,25.2
2017-07-08T09:31:34.941Z,25.2
2017-07-08T09:32:35.053Z,25.38
2017-07-08T09:33:35.004Z,25.51
2017-07-08T09:34:35.123Z,25.7
2017-07-08T09:35:35.308Z,25.86
2017-07-08T09:36:35.118Z,25.97
2017-07-08T09:37:35.156Z,25.97
2017-07-08T09:38:35.198Z,25.94
2017-07-08T09:39:35.241Z,25.81
2017-07-08T09:40:35.281Z,25.56
2017-07-08T09:41:35.316Z,25.3
2017-07-08T09:42:35.340Z,25.04
2017-07-08T09:43:35.365Z,24.89
2017-07-08T09:44:35.421Z,24.78
2017-07-08T09:45:35.450Z,24.71
2017-07-08T09:46:35.914Z,24.66
2017-07-08T09:47:35.522Z,24.71
2017-07-08T09:48:35.573Z,24.77
2017-07-08T09:49:35.622Z,24.85
2017-07-08T09:50:35.656Z,24.9
2017-07-08T09:51:35.683Z,25.02
2017-07-08T09:52:35.714Z,25.08
2017-07-08T09:53:35.773Z,25.07
2017-07-08T09:54:35.843Z,25.01
2017-07-08T09:55:35.816Z,24.87
2017-07-08T09:56:35.884Z,24.64
2017-07-08T09:57:35.920Z,24.48
2017-07-08T09:58:35.960Z,24.4
2017-07-08T09:59:36.300Z,24.29
2017-07-08T10:00:36.073Z,24.12
2017-07-08T10:01:36.112Z,24.03
2017-07-08T10:02:36.117Z,23.94
2017-07-08T10:03:36.169Z,23.78
2017-07-08T10:04:36.283Z,23.72
2017-07-08T10:05:36.624Z,23.6
2017-07-08T10:06:36.272Z,23.55
2017-07-08T10:07:36.320Z,23.47
2017-07-08T10:08:36.361Z,23.26
2017-07-08T10:09:36.396Z,23.35
2017-07-08T10:10:36.488Z,23.32
2017-07-08T10:11:36.818Z,23.42
2017-07-08T10:12:36.749Z,23.48
2017-07-08T10:13:36.695Z,23.52
2017-07-08T10:14:36.575Z,23.38
2017-07-08T10:15:36.625Z,23.48
2017-07-08T10:16:36.651Z,23.41
2017-07-08T10:17:36.731Z,23.42
2017-07-08T10:18:36.739Z,23.45
2017-07-08T10:19:36.763Z,23.5
2017-07-08T10:20:36.976Z,23.34
2017-07-08T10:21:36.861Z,23.37
2017-07-08T10:22:36.871Z,23.38
2017-07-08T10:23:36.960Z,23.34
2017-07-08T10:24:37.001Z,23.42
2017-07-08T10:25:36.987Z,23.42
2017-07-08T10:26:37.023Z,23.45
2017-07-08T10:27:37.072Z,23.42
2017-07-08T10:28:37.123Z,23.42
2017-07-08T10:29:37.195Z,23.42
2017-07-08T10:30:37.210Z,23.47
2017-07-08T10:31:37.243Z,23.52
2017-07-08T10:32:37.231Z,23.56
2017-07-08T10:33:37.304Z,23.72
2017-07-08T10:34:37.524Z,23.79
2017-07-08T10:35:37.371Z,23.79
2017-07-08T10:36:37.434Z,23.84
2017-07-08T10:37:37.441Z,23.87
2017-07-08T10:38:37.527Z,23.84
2017-07-08T10:39:37.943Z,23.85
2017-07-08T10:40:37.582Z,23.84
2017-07-08T10:41:37.601Z,24.02
2017-07-08T10:42:37.618Z,24.17
2017-07-08T10:43:37.694Z,24.27
2017-07-08T10:44:37.739Z,24.55
2017-07-08T10:45:37.741Z,24.83
2017-07-08T10:46:37.786Z,25.12
2017-07-08T10:47:37.819Z,25.29
2017-07-08T10:48:37.894Z,25.52
2017-07-08T10:49:37.893Z,25.78
2017-07-08T10:50:38.017Z,25.94
2017-07-08T10:51:38.206Z,26.11
2017-07-08T10:52:38.248Z,26.3
2017-07-08T10:53:39.672Z,26.41
2017-07-08T10:54:38.100Z,26.63
2017-07-08T10:55:38.125Z,26.93
2017-07-08T10:56:38.143Z,27.06
2017-07-08T10:57:38.179Z,27.13
2017-07-08T10:58:38.234Z,27.09
2017-07-08T10:59:38.904Z,27.08
2017-07-08T11:00:38.312Z,27.23
2017-07-08T11:01:38.469Z,27.28
2017-07-08T11:02:38.386Z,27.27
2017-07-08T11:03:38.479Z,27.23
2017-07-08T11:04:38.657Z,27.13
2017-07-08T11:05:38.556Z,27.13
2017-07-08T11:06:38.730Z,27.11
2017-07-08T11:07:38.789Z,27.15
2017-07-08T11:08:38.622Z,27
2017-07-08T11:09:38.644Z,27.08
2017-07-08T11:10:38.738Z,27
2017-07-08T11:11:38.944Z,27.04
2017-07-08T11:12:38.776Z,26.91
2017-07-08T11:13:38.852Z,26.63
2017-07-08T11:14:38.858Z,26.54
2017-07-08T11:15:38.916Z,26.38
2017-07-08T11:16:38.928Z,26.41
2017-07-08T11:17:39.060Z,26.3
2017-07-08T11:18:39.017Z,26.34
2017-07-08T11:19:39.090Z,26.35
2017-07-08T11:20:39.087Z,26.32
2017-07-08T11:21:39.192Z,26.41
2017-07-08T11:22:39.217Z,26.34
2017-07-08T11:23:39.183Z,26.32
2017-07-08T11:24:39.246Z,26.34
2017-07-08T11:25:40.153Z,26.45
2017-07-08T11:26:39.311Z,26.45
2017-07-08T11:27:39.735Z,26.41
2017-07-08T11:28:39.416Z,26.39
2017-07-08T11:29:39.435Z,26.53
2017-07-08T11:30:39.501Z,26.75
2017-07-08T11:31:39.490Z,27.13
2017-07-08T11:32:39.536Z,27.43
2017-07-08T11:33:39.647Z,27.84
2017-07-08T11:34:39.830Z,28.05
2017-07-08T11:35:39.677Z,28.09
2017-07-08T11:36:39.701Z,28.14
2017-07-08T11:37:39.890Z,28.09
2017-07-08T11:38:39.795Z,28.3
2017-07-08T11:39:40.129Z,28.65
2017-07-08T11:40:40.237Z,28.94
2017-07-08T11:41:40.144Z,29.05
2017-07-08T11:42:39.925Z,28.97
2017-07-08T11:43:39.966Z,28.91
2017-07-08T11:44:40.055Z,29.01
2017-07-08T11:45:40.061Z,29.01
2017-07-08T11:46:40.380Z,28.92
2017-07-08T11:47:40.157Z,28.9
2017-07-08T11:48:40.410Z,28.7
2017-07-08T11:49:40.426Z,28.49
2017-07-08T11:50:40.572Z,28.43
2017-07-08T11:51:40.307Z,28.33
2017-07-08T11:52:40.312Z,28.16
2017-07-08T11:53:40.605Z,28.05
2017-07-08T11:54:40.619Z,27.87
2017-07-08T11:55:40.473Z,27.61
2017-07-08T11:56:40.606Z,27.34
2017-07-08T11:57:40.535Z,27.12
2017-07-08T11:58:40.870Z,27.06
2017-07-08T11:59:40.705Z,26.94
2017-07-08T12:00:40.689Z,26.81
2017-07-08T12:01:40.726Z,26.84
2017-07-08T12:02:40.777Z,26.76
2017-07-08T12:03:40.862Z,26.75
2017-07-08T12:04:41.053Z,26.81
2017-07-08T12:05:40.818Z,26.81
2017-07-08T12:06:40.914Z,26.76
2017-07-08T12:07:40.915Z,26.68
2017-07-08T12:08:40.974Z,26.63
2017-07-08T12:09:41.047Z,26.54
2017-07-08T12:10:41.039Z,26.6
2017-07-08T12:11:41.093Z,26.52
2017-07-08T12:12:41.159Z,26.35
2017-07-08T12:13:41.158Z,26.06
2017-07-08T12:14:41.206Z,25.86
2017-07-08T12:15:41.235Z,25.91
2017-07-08T12:16:41.298Z,25.88
2017-07-08T12:17:41.333Z,25.96
2017-07-08T12:18:41.606Z,26.11
2017-07-08T12:19:41.610Z,26.23
2017-07-08T12:20:41.480Z,26.45
2017-07-08T12:21:41.465Z,26.67
2017-07-08T12:22:41.518Z,26.67
2017-07-08T12:23:41.681Z,26.67
2017-07-08T12:24:41.682Z,26.68
2017-07-08T12:25:41.618Z,26.67
2017-07-08T12:26:41.692Z,26.67
2017-07-08T12:27:41.743Z,26.71
2017-07-08T12:28:41.757Z,26.53
2017-07-08T12:29:42.078Z,26.53
2017-07-08T12:30:42.019Z,26.2
2017-07-08T12:31:41.885Z,26.04
2017-07-08T12:32:41.887Z,25.85
2017-07-08T12:33:41.957Z,25.86
2017-07-08T12:34:42.197Z,25.88
2017-07-08T12:35:41.997Z,25.86
2017-07-08T12:36:42.064Z,25.86
2017-07-08T12:37:42.101Z,25.89
2017-07-08T12:38:42.120Z,25.99
2017-07-08T12:39:42.374Z,25.96
2017-07-08T12:40:42.298Z,26
2017-07-08T12:41:42.346Z,25.89
2017-07-08T12:42:42.279Z,25.76
2017-07-08T12:43:42.322Z,25.64
2017-07-08T12:44:42.370Z,25.6
2017-07-08T12:45:42.475Z,25.48
2017-07-08T12:46:42.479Z,25.54
2017-07-08T12:47:42.477Z,25.56
2017-07-08T12:48:42.536Z,25.45
2017-07-08T12:49:42.531Z,25.47
2017-07-08T12:50:42.594Z,25.33
2017-07-08T12:51:42.679Z,25.24
2017-07-08T12:52:42.666Z,25.27
2017-07-08T12:53:42.774Z,25.29
2017-07-08T12:54:42.812Z,25.12
2017-07-08T12:55:42.782Z,25.09